Time;durP1;ratioP1;P1;durP2;ratioP2;P2;SDS_P1;SDS_P2;PMS_P1;PMS_P2;Temp;Humidity;BMP_temperature;BMP_pressure;BME280_temperature;BME280_humidity;BME280_pressure;Samples;Min_cycle;Max_cycle;Signal;HPM_P1;HPM_P2
2022/12/03 00:00:32;;;;;;;30.52;14.85;;;3.60;99.90;;;;;;5007439;28;20459;-77
2022/12/03 00:02:57;;;;;;;29.85;14.73;;;3.60;99.90;;;;;;5020550;28;20137;-77
2022/12/03 00:05:23;;;;;;;32.55;15.15;;;3.60;99.90;;;;;;5026265;28;20044;-77
2022/12/03 00:07:48;;;;;;;32.20;15.55;;;3.70;99.90;;;;;;5021062;28;20395;-77
2022/12/03 00:10:14;;;;;;;31.27;15.02;;;3.70;99.90;;;;;;5023140;28;20116;-76
2022/12/03 00:12:39;;;;;;;30.77;14.52;;;3.60;99.90;;;;;;5031718;28;20059;-77
2022/12/03 00:15:06;;;;;;;33.08;15.90;;;3.60;99.90;;;;;;5046605;28;20129;-76
2022/12/03 00:17:32;;;;;;;30.95;14.77;;;3.70;99.90;;;;;;5022671;28;20080;-76
2022/12/03 00:19:57;;;;;;;32.97;15.63;;;3.70;99.90;;;;;;5022158;28;20296;-77
2022/12/03 00:22:23;;;;;;;33.55;16.23;;;3.70;99.90;;;;;;5016049;28;20482;-76
2022/12/03 00:24:49;;;;;;;31.10;14.88;;;3.70;99.90;;;;;;5022944;28;20364;-77
2022/12/03 00:27:14;;;;;;;32.97;15.77;;;3.70;99.90;;;;;;5018566;28;20048;-76
2022/12/03 00:29:40;;;;;;;32.42;15.57;;;3.70;99.90;;;;;;5040573;28;20048;-77
2022/12/03 00:32:05;;;;;;;30.38;15.07;;;3.70;99.90;;;;;;5006461;28;20041;-76
2022/12/03 00:34:31;;;;;;;33.38;15.60;;;3.70;99.90;;;;;;5003783;28;20033;-76
2022/12/03 00:36:56;;;;;;;34.20;16.13;;;3.70;99.90;;;;;;5025999;28;20049;-76
2022/12/03 00:39:22;;;;;;;31.50;15.57;;;3.70;99.90;;;;;;5019885;28;20037;-77
2022/12/03 00:41:48;;;;;;;35.80;15.93;;;3.70;99.90;;;;;;5026552;28;20045;-76
2022/12/03 00:44:13;;;;;;;36.72;15.93;;;3.70;99.90;;;;;;5039452;28;20033;-76
2022/12/03 00:46:39;;;;;;;35.80;16.15;;;3.70;99.90;;;;;;5043516;28;20052;-76
2022/12/03 00:49:04;;;;;;;35.72;16.92;;;3.70;99.90;;;;;;5039057;28;20033;-77
2022/12/03 00:51:30;;;;;;;36.17;16.73;;;3.70;99.90;;;;;;5019894;28;20493;-77
2022/12/03 00:53:55;;;;;;;37.28;16.42;;;4.30;99.90;;;;;;5025325;28;20408;-77
2022/12/03 00:56:21;;;;;;;35.97;16.40;;;3.80;99.90;;;;;;5005315;28;20041;-76
2022/12/03 00:58:47;;;;;;;36.08;15.65;;;3.70;99.90;;;;;;5022309;28;20045;-77
2022/12/03 01:01:12;;;;;;;37.33;16.30;;;3.80;99.90;;;;;;5021945;28;20031;-76
2022/12/03 01:03:38;;;;;;;33.38;15.30;;;3.80;99.90;;;;;;5021016;28;20033;-76
2022/12/03 01:06:03;;;;;;;33.78;16.23;;;3.80;99.90;;;;;;5024896;28;20037;-77
2022/12/03 01:08:29;;;;;;;35.40;16.02;;;3.80;99.90;;;;;;5006198;28;20052;-77
2022/12/03 01:10:55;;;;;;;34.17;16.38;;;3.80;99.90;;;;;;5026103;28;20129;-76
2022/12/03 01:13:20;;;;;;;32.17;15.60;;;3.70;99.90;;;;;;5001375;28;20043;-77
2022/12/03 01:15:46;;;;;;;36.40;15.98;;;3.70;99.90;;;;;;5024281;28;20478;-76
2022/12/03 01:18:11;;;;;;;34.17;15.93;;;3.80;99.90;;;;;;5021506;28;20482;-75
2022/12/03 01:20:37;;;;;;;34.80;16.05;;;3.70;99.90;;;;;;5022992;28;20065;-77
2022/12/03 01:23:04;;;;;;;33.50;16.13;;;3.80;99.90;;;;;;5023616;28;20091;-76
2022/12/03 01:25:29;;;;;;;36.55;16.70;;;3.80;99.90;;;;;;5022839;28;20041;-77
2022/12/03 01:27:55;;;;;;;35.05;16.02;;;3.80;99.90;;;;;;5025768;28;20676;-77
2022/12/03 01:30:21;;;;;;;36.28;16.65;;;3.80;99.90;;;;;;5009965;28;20048;-77
2022/12/03 01:32:46;;;;;;;32.17;15.38;;;3.80;99.90;;;;;;5015127;28;20033;-77
2022/12/03 01:35:12;;;;;;;37.05;16.15;;;3.80;99.90;;;;;;5021659;28;20037;-78
2022/12/03 01:37:38;;;;;;;35.67;16.30;;;3.80;99.90;;;;;;5015253;28;20091;-78
2022/12/03 01:40:05;;;;;;;33.20;16.35;;;3.80;99.90;;;;;;5021528;28;20034;-77
2022/12/03 01:42:35;;;;;;;33.33;16.35;;;3.80;99.90;;;;;;5010556;28;20064;-77
2022/12/03 01:45:01;;;;;;;35.42;17.33;;;3.80;99.90;;;;;;5024485;28;20398;-77
2022/12/03 01:47:31;;;;;;;34.33;15.70;;;3.80;99.90;;;;;;5026455;28;20403;-77
2022/12/03 01:50:21;;;;;;;34.38;17.00;;;3.80;99.90;;;;;;5015343;28;20048;-77
2022/12/03 01:52:47;;;;;;;35.60;16.17;;;3.80;99.90;;;;;;5021109;28;20125;-79
2022/12/03 01:55:17;;;;;;;35.17;16.17;;;3.90;99.90;;;;;;5017584;28;20108;-77
2022/12/03 01:57:52;;;;;;;35.63;15.30;;;4.10;99.90;;;;;;5023931;28;20569;-77
2022/12/03 02:00:25;;;;;;;33.95;16.63;;;3.90;99.90;;;;;;5004261;28;20052;-77
2022/12/03 02:03:00;;;;;;;32.00;16.60;;;3.80;99.90;;;;;;5015850;28;20045;-78
2022/12/03 02:05:28;;;;;;;34.63;15.98;;;3.90;99.90;;;;;;5045081;28;20075;-77
2022/12/03 02:07:54;;;;;;;36.85;17.00;;;3.90;99.90;;;;;;5023782;28;20124;-77
2022/12/03 02:10:30;;;;;;;34.72;15.60;;;3.90;99.90;;;;;;5012267;28;20505;-77
2022/12/03 02:13:07;;;;;;;35.42;16.92;;;3.90;99.90;;;;;;5020368;28;20059;-77
2022/12/03 02:15:33;;;;;;;36.33;17.02;;;3.90;99.90;;;;;;5028681;28;20490;-77
2022/12/03 02:17:59;;;;;;;32.58;16.55;;;3.90;99.90;;;;;;5026624;28;20049;-77
2022/12/03 02:20:25;;;;;;;34.60;17.20;;;3.90;99.90;;;;;;5015271;28;20651;-77
2022/12/03 02:23:20;;;;;;;37.10;17.42;;;3.90;99.90;;;;;;5023868;28;20041;-77
2022/12/03 02:25:46;;;;;;;33.17;16.10;;;3.90;99.90;;;;;;5023413;28;20085;-78
2022/12/03 02:28:12;;;;;;;34.35;16.95;;;4.20;99.90;;;;;;5026395;28;20465;-78
2022/12/03 02:30:38;;;;;;;31.33;16.27;;;3.90;99.90;;;;;;5020413;28;20056;-77
2022/12/03 02:33:04;;;;;;;33.53;16.27;;;3.90;99.90;;;;;;5029728;28;20516;-78
2022/12/03 02:35:32;;;;;;;33.72;16.45;;;3.90;99.90;;;;;;5012025;28;20042;-77
2022/12/03 02:38:20;;;;;;;34.78;17.27;;;3.90;99.90;;;;;;5042129;28;20053;-77
2022/12/03 02:40:49;;;;;;;33.40;16.55;;;3.90;99.90;;;;;;5020029;28;20084;-77
2022/12/03 02:43:18;;;;;;;32.55;16.75;;;3.90;99.90;;;;;;5032809;28;20049;-77
2022/12/03 02:45:46;;;;;;;32.03;16.33;;;3.90;99.90;;;;;;5015644;28;20049;-77
2022/12/03 02:48:18;;;;;;;33.75;16.95;;;3.90;99.90;;;;;;5030624;28;20081;-78
2022/12/03 02:50:52;;;;;;;34.63;16.35;;;3.90;99.90;;;;;;5020145;28;20119;-77
2022/12/03 02:53:26;;;;;;;27.73;15.65;;;3.90;99.90;;;;;;5008551;28;20044;-77
2022/12/03 02:55:53;;;;;;;29.92;16.63;;;3.90;99.90;;;;;;5025313;28;20076;-76
2022/12/03 02:58:20;;;;;;;33.70;16.73;;;3.90;99.90;;;;;;5018255;28;20529;-76
2022/12/03 03:00:48;;;;;;;34.35;16.95;;;3.90;99.90;;;;;;5025481;28;20049;-76
2022/12/03 03:03:16;;;;;;;32.25;17.00;;;3.90;99.90;;;;;;5029263;28;20049;-76
2022/12/03 03:05:41;;;;;;;32.45;15.93;;;3.90;99.90;;;;;;5023183;28;20498;-76
2022/12/03 03:08:08;;;;;;;35.03;16.80;;;3.90;99.90;;;;;;5022505;28;20112;-76
2022/12/03 03:10:37;;;;;;;31.88;16.02;;;3.90;99.90;;;;;;5024443;28;20045;-76
2022/12/03 03:13:07;;;;;;;29.85;16.20;;;3.90;99.90;;;;;;5019178;28;20116;-77
2022/12/03 03:15:35;;;;;;;31.50;15.60;;;3.90;99.90;;;;;;5045144;28;20048;-76
2022/12/03 03:18:00;;;;;;;29.13;15.85;;;3.90;99.90;;;;;;5020459;28;20132;-75
2022/12/03 03:20:26;;;;;;;29.58;15.75;;;3.90;99.90;;;;;;5022718;28;20122;-75
2022/12/03 03:22:51;;;;;;;34.75;17.17;;;3.90;99.90;;;;;;5027136;28;20045;-77
2022/12/03 03:25:23;;;;;;;29.83;15.60;;;4.90;99.90;;;;;;5032637;28;20037;-78
2022/12/03 03:27:49;;;;;;;33.80;16.70;;;3.90;99.90;;;;;;5023700;28;20099;-77
2022/12/03 03:30:15;;;;;;;32.22;15.90;;;3.90;99.90;;;;;;5018568;28;20034;-77
2022/12/03 03:32:41;;;;;;;31.45;15.85;;;3.90;99.90;;;;;;5044751;28;20032;-76
2022/12/03 03:35:08;;;;;;;32.03;16.60;;;3.90;99.90;;;;;;5006731;28;20395;-77
2022/12/03 03:37:34;;;;;;;29.50;15.10;;;3.90;99.90;;;;;;5025072;28;20041;-76
2022/12/03 03:39:59;;;;;;;31.52;15.90;;;3.90;99.90;;;;;;5020061;28;20046;-79
2022/12/03 03:42:25;;;;;;;31.98;16.38;;;3.90;99.90;;;;;;5018985;28;20050;-77
2022/12/03 03:44:51;;;;;;;30.92;16.08;;;3.90;99.90;;;;;;5015281;28;20503;-77
2022/12/03 03:47:17;;;;;;;29.88;15.68;;;3.90;99.90;;;;;;5016556;28;20132;-77
2022/12/03 03:49:43;;;;;;;31.27;17.00;;;3.90;99.90;;;;;;5011519;28;20080;-77
2022/12/03 03:52:10;;;;;;;34.78;17.08;;;3.90;99.90;;;;;;5025510;28;20068;-77
2022/12/03 03:54:37;;;;;;;33.92;17.48;;;3.90;99.90;;;;;;5012506;28;20042;-75
2022/12/03 03:57:03;;;;;;;33.65;16.73;;;3.90;99.90;;;;;;5025640;28;20563;-75
2022/12/03 03:59:28;;;;;;;34.00;17.13;;;3.90;99.90;;;;;;5021359;28;20068;-76
2022/12/03 04:01:54;;;;;;;32.90;17.20;;;3.90;99.90;;;;;;5011182;28;20069;-76
2022/12/03 04:04:25;;;;;;;36.45;17.80;;;3.90;99.90;;;;;;5024939;28;20037;-76
2022/12/03 04:06:50;;;;;;;35.15;17.52;;;3.90;99.90;;;;;;5012186;28;20491;-76
2022/12/03 04:09:16;;;;;;;34.65;17.30;;;3.90;99.90;;;;;;5028789;28;20041;-75
2022/12/03 04:14:26;;;;;;;36.22;17.90;;;3.90;99.90;;;;;;5023926;28;20411;-76
2022/12/03 04:16:51;;;;;;;34.90;17.77;;;3.90;99.90;;;;;;5018953;28;20038;-76
2022/12/03 04:19:17;;;;;;;32.75;17.60;;;3.90;99.90;;;;;;5022571;28;20428;-76
2022/12/03 04:24:27;;;;;;;32.05;16.55;;;3.90;99.90;;;;;;5010401;28;20115;-76
2022/12/03 04:29:36;;;;;;;30.88;16.10;;;3.90;99.90;;;;;;5017650;28;20393;-76
2022/12/03 04:37:31;;;;;;;34.28;17.60;;;3.90;99.90;;;;;;5021919;28;20048;-77
2022/12/03 04:39:56;;;;;;;31.77;16.85;;;3.90;99.90;;;;;;5025045;28;20046;-76
2022/12/03 04:42:22;;;;;;;30.50;16.42;;;3.80;99.90;;;;;;5020470;28;20045;-77
2022/12/03 04:44:47;;;;;;;33.05;17.00;;;3.80;99.90;;;;;;5024791;28;20053;-77
2022/12/03 04:47:16;;;;;;;30.15;16.15;;;3.80;99.90;;;;;;5024424;28;20041;-77
2022/12/03 04:49:52;;;;;;;32.55;16.73;;;3.80;99.90;;;;;;5018590;28;20033;-77
2022/12/03 04:52:19;;;;;;;33.00;16.45;;;3.80;99.90;;;;;;5040463;28;20048;-77
2022/12/03 04:54:45;;;;;;;30.73;16.05;;;3.60;99.90;;;;;;5048328;28;20071;-75
2022/12/03 04:57:11;;;;;;;31.40;16.13;;;3.80;99.90;;;;;;5031717;28;20041;-76
2022/12/03 04:59:37;;;;;;;32.95;16.27;;;3.80;99.90;;;;;;5025204;28;20073;-76
2022/12/03 05:02:04;;;;;;;30.58;15.20;;;3.80;99.90;;;;;;5031093;28;20056;-76
2022/12/03 05:04:30;;;;;;;33.25;17.70;;;3.80;99.90;;;;;;5021311;28;20474;-76
2022/12/03 05:06:56;;;;;;;32.60;16.48;;;3.80;99.90;;;;;;5010932;28;20081;-76
2022/12/03 05:09:21;;;;;;;33.47;17.30;;;3.80;99.90;;;;;;5021913;28;20077;-76
2022/12/03 05:11:47;;;;;;;31.90;16.30;;;3.70;99.90;;;;;;5027650;28;20128;-77
2022/12/03 05:14:13;;;;;;;33.40;17.10;;;3.70;99.90;;;;;;5044152;28;20481;-76
2022/12/03 05:16:38;;;;;;;33.25;17.13;;;3.70;99.90;;;;;;5025912;28;20041;-75
2022/12/03 05:19:05;;;;;;;35.72;17.60;;;3.70;99.90;;;;;;5014079;28;20041;-75
2022/12/03 05:21:31;;;;;;;32.38;16.38;;;3.70;99.90;;;;;;5016519;28;20113;-76
2022/12/03 05:23:57;;;;;;;31.30;16.35;;;3.70;99.90;;;;;;5029215;28;20128;-76
2022/12/03 05:26:22;;;;;;;32.90;16.90;;;3.70;99.90;;;;;;5030514;28;20038;-75
2022/12/03 05:28:48;;;;;;;30.52;15.95;;;3.70;99.90;;;;;;5016388;28;20034;-76
2022/12/03 05:31:14;;;;;;;33.58;17.60;;;3.70;99.90;;;;;;5035522;28;20383;-75
2022/12/03 05:33:39;;;;;;;31.65;16.98;;;4.50;99.90;;;;;;5029526;28;20042;-76
2022/12/03 05:36:05;;;;;;;32.63;16.88;;;3.70;99.90;;;;;;5019350;28;20379;-76
2022/12/03 05:38:31;;;;;;;33.15;16.48;;;3.70;99.90;;;;;;5029866;28;20044;-75
2022/12/03 05:40:56;;;;;;;31.63;16.73;;;3.70;99.90;;;;;;5018584;28;20041;-77
2022/12/03 05:43:22;;;;;;;35.20;17.33;;;3.70;99.90;;;;;;5034493;28;20033;-77
2022/12/03 05:45:48;;;;;;;33.20;16.98;;;3.60;99.90;;;;;;5025877;28;20048;-77
2022/12/03 05:48:15;;;;;;;33.42;16.85;;;3.70;99.90;;;;;;5027933;28;20045;-77
2022/12/03 05:50:43;;;;;;;32.97;16.92;;;3.70;99.90;;;;;;5027767;28;20038;-78
2022/12/03 05:53:09;;;;;;;30.80;16.80;;;3.60;99.90;;;;;;5028482;28;20046;-77
2022/12/03 05:55:35;;;;;;;32.47;16.85;;;3.70;99.90;;;;;;5047588;28;20500;-78
2022/12/03 05:58:01;;;;;;;34.30;17.30;;;3.70;99.90;;;;;;5007382;28;20125;-78
2022/12/03 06:00:32;;;;;;;33.33;17.48;;;3.60;99.90;;;;;;5035246;28;20473;-77
2022/12/03 06:02:58;;;;;;;34.30;17.27;;;3.60;99.90;;;;;;5025855;28;20096;-77
2022/12/03 06:05:24;;;;;;;33.13;16.33;;;3.60;99.90;;;;;;5018401;28;20034;-77
2022/12/03 06:07:51;;;;;;;37.38;17.88;;;3.60;99.90;;;;;;5036986;28;20046;-77
2022/12/03 06:10:20;;;;;;;30.33;16.13;;;3.60;99.90;;;;;;5003470;28;20453;-76
2022/12/03 06:12:46;;;;;;;32.20;17.27;;;3.60;99.90;;;;;;5024727;28;20042;-77
2022/12/03 06:15:13;;;;;;;35.25;17.67;;;4.60;99.90;;;;;;5019761;28;20477;-77
2022/12/03 06:17:39;;;;;;;32.75;17.33;;;3.60;99.90;;;;;;5030241;28;20048;-77
2022/12/03 06:20:05;;;;;;;31.45;17.08;;;3.60;99.90;;;;;;5006108;28;20474;-77
2022/12/03 06:22:31;;;;;;;32.33;16.25;;;3.60;99.90;;;;;;5025159;28;20401;-77
2022/12/03 06:24:56;;;;;;;36.03;17.77;;;3.60;99.90;;;;;;5020399;28;20046;-77
2022/12/03 06:27:22;;;;;;;34.50;16.80;;;3.60;99.90;;;;;;5022908;28;20052;-77
2022/12/03 06:29:48;;;;;;;37.53;18.05;;;3.60;99.90;;;;;;5013048;28;20084;-78
2022/12/03 06:32:14;;;;;;;37.78;17.58;;;3.60;99.90;;;;;;5027435;28;20450;-77
2022/12/03 06:34:39;;;;;;;34.90;17.50;;;3.60;99.90;;;;;;5025486;28;20114;-77
2022/12/03 06:37:05;;;;;;;35.88;17.92;;;3.60;99.90;;;;;;5014659;28;20049;-77
2022/12/03 06:39:30;;;;;;;31.38;16.92;;;3.60;99.90;;;;;;5021367;28;20486;-77
2022/12/03 06:41:56;;;;;;;34.80;17.85;;;3.60;99.90;;;;;;5013496;28;20046;-77
2022/12/03 06:44:21;;;;;;;33.88;17.45;;;3.60;99.90;;;;;;5029274;28;20402;-77
2022/12/03 06:46:47;;;;;;;33.45;17.85;;;3.60;99.90;;;;;;5026662;28;20034;-77
2022/12/03 06:49:13;;;;;;;36.65;18.48;;;3.60;99.90;;;;;;5021468;28;20504;-77
2022/12/03 06:51:39;;;;;;;37.40;17.85;;;3.60;99.90;;;;;;5023486;28;20044;-76
2022/12/03 06:54:05;;;;;;;33.08;17.30;;;3.60;99.90;;;;;;5022760;28;20030;-77
2022/12/03 06:56:31;;;;;;;37.38;17.98;;;3.60;99.90;;;;;;5029525;28;20041;-77
2022/12/03 06:58:56;;;;;;;32.50;17.35;;;3.60;99.90;;;;;;5018883;28;20045;-77
2022/12/03 07:01:22;;;;;;;39.78;18.95;;;3.60;99.90;;;;;;5026459;28;20478;-77
2022/12/03 07:03:48;;;;;;;39.53;19.38;;;3.60;99.90;;;;;;5005122;28;20620;-77
2022/12/03 07:06:13;;;;;;;37.55;18.48;;;3.60;99.90;;;;;;4998308;28;20124;-77
2022/12/03 07:08:39;;;;;;;39.78;19.13;;;3.60;99.90;;;;;;5022816;28;20376;-78
2022/12/03 07:11:29;;;;;;;37.35;19.60;;;3.60;99.90;;;;;;5033325;28;20407;-77
2022/12/03 07:13:51;;;;;;;37.83;19.58;;;3.60;99.90;;;;;;5028054;28;20049;-77
2022/12/03 07:16:16;;;;;;;38.80;19.88;;;3.60;99.90;;;;;;5020187;28;20036;-76
2022/12/03 07:18:42;;;;;;;36.35;19.30;;;3.60;99.90;;;;;;5026861;28;20069;-77
2022/12/03 07:21:07;;;;;;;40.28;19.38;;;3.60;99.90;;;;;;5024062;28;20033;-78
2022/12/03 07:23:33;;;;;;;40.78;21.33;;;3.60;99.90;;;;;;5023514;28;20542;-77
2022/12/03 07:25:59;;;;;;;41.67;21.08;;;3.60;99.90;;;;;;5023052;28;20068;-77
2022/12/03 07:28:24;;;;;;;45.20;22.85;;;3.60;99.90;;;;;;5014115;28;20042;-77
2022/12/03 07:30:50;;;;;;;45.80;21.98;;;3.60;99.90;;;;;;5020374;28;20037;-77
2022/12/03 07:33:15;;;;;;;42.13;21.80;;;3.60;99.90;;;;;;5021523;28;20034;-77
2022/12/03 07:35:41;;;;;;;43.30;21.17;;;3.50;99.90;;;;;;5014971;28;20042;-77
2022/12/03 07:38:06;;;;;;;44.63;21.85;;;3.50;99.90;;;;;;5019637;28;20048;-77
2022/12/03 07:40:32;;;;;;;43.15;21.83;;;3.50;99.90;;;;;;5009960;28;20078;-78
2022/12/03 07:42:57;;;;;;;43.58;21.17;;;3.50;99.90;;;;;;5017797;28;20528;-77
2022/12/03 07:45:23;;;;;;;44.53;21.63;;;3.50;99.90;;;;;;5023691;28;20462;-77
2022/12/03 07:47:48;;;;;;;42.55;21.50;;;3.50;99.90;;;;;;5019899;28;20228;-77
2022/12/03 07:50:14;;;;;;;43.65;21.70;;;3.40;99.90;;;;;;5029512;28;20052;-78
2022/12/03 07:52:40;;;;;;;44.25;21.65;;;3.50;99.90;;;;;;5013924;28;20053;-77
2022/12/03 07:55:06;;;;;;;44.08;21.63;;;3.50;99.90;;;;;;5018703;28;20120;-77
2022/12/03 07:57:31;;;;;;;46.08;21.13;;;3.40;99.90;;;;;;5020197;28;20093;-77
2022/12/03 07:59:57;;;;;;;43.75;21.45;;;3.40;99.90;;;;;;5020812;28;20046;-77
2022/12/03 08:02:22;;;;;;;44.97;20.92;;;3.40;99.90;;;;;;5041467;28;20037;-77
2022/12/03 08:04:48;;;;;;;43.78;20.92;;;3.40;99.90;;;;;;5010543;28;20439;-76
2022/12/03 08:07:13;;;;;;;42.72;20.88;;;3.40;99.90;;;;;;5026303;28;20037;-77
2022/12/03 08:09:39;;;;;;;45.13;21.65;;;3.40;99.90;;;;;;5014643;28;20103;-77
2022/12/03 08:12:16;;;;;;;39.88;20.58;;;3.40;99.90;;;;;;5019703;28;20068;-78
2022/12/03 08:14:42;;;;;;;45.42;20.67;;;3.40;99.90;;;;;;5015829;28;20030;-77
2022/12/03 08:17:16;;;;;;;46.42;21.35;;;3.40;99.90;;;;;;5014779;28;20125;-78
2022/12/03 08:19:45;;;;;;;44.08;20.60;;;3.40;99.90;;;;;;5009876;28;20513;-77
2022/12/03 08:22:15;;;;;;;44.80;20.13;;;3.40;99.90;;;;;;5014887;28;20075;-77
2022/12/03 08:24:42;;;;;;;44.42;21.60;;;3.40;99.90;;;;;;5008021;28;20051;-77
2022/12/03 08:27:18;;;;;;;45.53;20.75;;;3.40;99.90;;;;;;5022083;28;20046;-77
2022/12/03 08:29:45;;;;;;;47.05;21.88;;;3.40;99.90;;;;;;5014625;28;20482;-78
2022/12/03 08:32:11;;;;;;;48.75;21.63;;;3.40;99.90;;;;;;5020418;28;20521;-77
2022/12/03 08:34:42;;;;;;;47.90;22.38;;;3.40;99.90;;;;;;5018394;28;20037;-77
2022/12/03 08:37:15;;;;;;;49.35;22.23;;;3.40;99.90;;;;;;5003976;28;20042;-77
2022/12/03 08:39:45;;;;;;;49.65;23.55;;;3.30;99.90;;;;;;5018445;28;20037;-77
2022/12/03 08:42:40;;;;;;;50.88;21.50;;;3.30;99.90;;;;;;5006800;28;20125;-77
2022/12/03 08:45:25;;;;;;;47.45;22.15;;;3.30;99.90;;;;;;5027013;28;20041;-77
2022/12/03 08:47:51;;;;;;;45.30;21.90;;;3.40;99.90;;;;;;5015380;28;20099;-77
2022/12/03 08:50:28;;;;;;;45.10;21.25;;;3.30;99.90;;;;;;5019814;28;20492;-77
2022/12/03 08:53:05;;;;;;;47.38;21.85;;;3.40;99.90;;;;;;5019364;28;20156;-77
2022/12/03 08:55:34;;;;;;;44.90;21.83;;;3.40;99.90;;;;;;5026984;28;20042;-77
2022/12/03 08:58:04;;;;;;;47.35;22.00;;;3.40;99.90;;;;;;5021498;28;20057;-77
2022/12/03 09:00:31;;;;;;;43.65;21.48;;;3.40;99.90;;;;;;5045932;28;20504;-77
2022/12/03 09:02:59;;;;;;;51.30;22.48;;;3.40;99.90;;;;;;5020124;28;20121;-77
2022/12/03 09:05:34;;;;;;;44.83;21.13;;;3.40;99.90;;;;;;5015527;28;20127;-77
2022/12/03 09:08:00;;;;;;;41.75;21.17;;;3.40;99.90;;;;;;5016744;28;20057;-77
2022/12/03 09:10:25;;;;;;;45.42;20.60;;;3.30;99.90;;;;;;5016028;28;20482;-77
2022/12/03 09:12:51;;;;;;;44.65;22.10;;;3.30;99.90;;;;;;5024865;28;20115;-77
2022/12/03 09:15:16;;;;;;;42.90;20.75;;;3.30;99.90;;;;;;5024740;28;20037;-77
2022/12/03 09:17:42;;;;;;;44.55;20.08;;;3.30;99.90;;;;;;5026377;28;20248;-77
2022/12/03 09:20:08;;;;;;;47.25;21.05;;;3.30;99.90;;;;;;5021870;28;20041;-77
2022/12/03 09:22:34;;;;;;;40.75;21.35;;;3.30;99.90;;;;;;5014418;28;20183;-77
2022/12/03 09:24:59;;;;;;;44.22;21.27;;;3.30;99.90;;;;;;5018872;28;20167;-77
2022/12/03 09:27:25;;;;;;;45.50;22.15;;;3.40;99.90;;;;;;5009185;28;20045;-77
2022/12/03 09:29:51;;;;;;;46.78;21.27;;;3.40;99.90;;;;;;5015524;28;20034;-77
2022/12/03 09:32:16;;;;;;;41.97;19.80;;;3.40;99.90;;;;;;5010227;28;20029;-77
2022/12/03 09:34:42;;;;;;;45.30;22.00;;;3.40;99.90;;;;;;5018330;28;20041;-77
2022/12/03 09:37:08;;;;;;;41.85;20.83;;;3.40;99.90;;;;;;5017305;28;20050;-77
2022/12/03 09:39:34;;;;;;;44.58;21.15;;;3.40;99.90;;;;;;5008878;28;20375;-77
2022/12/03 09:42:00;;;;;;;46.28;22.17;;;3.40;99.90;;;;;;5025329;28;20052;-78
2022/12/03 09:44:29;;;;;;;43.53;20.55;;;3.40;99.90;;;;;;5014353;28;20060;-79
2022/12/03 09:46:58;;;;;;;44.67;21.92;;;3.40;99.90;;;;;;5028355;28;20045;-77
2022/12/03 09:49:26;;;;;;;42.45;21.13;;;3.40;99.90;;;;;;5016113;28;20041;-77
2022/12/03 09:51:55;;;;;;;41.67;20.73;;;3.40;99.90;;;;;;5040763;28;20045;-79
2022/12/03 09:54:26;;;;;;;40.25;20.42;;;3.40;99.90;;;;;;5023667;28;20099;-77
2022/12/03 09:56:54;;;;;;;44.05;20.58;;;4.50;99.90;;;;;;5028935;28;20474;-78
2022/12/03 09:59:22;;;;;;;47.92;21.85;;;3.40;99.90;;;;;;5012799;28;20042;-78
2022/12/03 10:01:47;;;;;;;46.47;20.92;;;3.40;99.90;;;;;;5005619;28;20095;-77
2022/12/03 10:04:13;;;;;;;44.92;21.08;;;3.30;99.90;;;;;;5019551;28;20046;-77
2022/12/03 10:06:39;;;;;;;46.53;21.08;;;3.30;99.90;;;;;;5014576;28;20033;-77
2022/12/03 10:09:05;;;;;;;42.70;20.83;;;3.30;99.90;;;;;;5025814;28;20162;-77
2022/12/03 10:11:33;;;;;;;42.78;19.83;;;3.30;99.90;;;;;;5011557;28;20034;-77
2022/12/03 10:13:59;;;;;;;44.45;22.13;;;3.30;99.90;;;;;;5024173;28;20401;-77
2022/12/03 10:16:26;;;;;;;46.17;23.55;;;3.30;99.90;;;;;;5019389;28;20043;-77
2022/12/03 10:18:54;;;;;;;44.03;20.98;;;3.40;99.90;;;;;;5009508;28;20045;-77
2022/12/03 10:21:35;;;;;;;44.92;21.65;;;3.40;99.90;;;;;;5018265;28;20047;-77
2022/12/03 10:24:28;;;;;;;40.50;20.30;;;3.40;99.90;;;;;;5016593;28;20034;-78
2022/12/03 10:26:59;;;;;;;45.03;21.83;;;3.40;99.90;;;;;;5022189;28;20058;-77
2022/12/03 10:29:33;;;;;;;44.97;21.70;;;3.40;99.90;;;;;;5025689;28;20112;-77
2022/12/03 10:32:10;;;;;;;52.53;22.60;;;3.40;99.90;;;;;;5025119;28;20438;-77
2022/12/03 10:34:38;;;;;;;44.45;21.40;;;3.40;99.90;;;;;;5021528;28;20045;-76
2022/12/03 10:37:17;;;;;;;46.67;22.20;;;3.40;99.90;;;;;;5019846;28;20537;-77
2022/12/03 10:39:57;;;;;;;46.33;22.35;;;3.40;99.90;;;;;;5010943;28;20041;-77
2022/12/03 10:42:25;;;;;;;46.10;22.25;;;3.40;99.90;;;;;;5021547;28;20044;-78
2022/12/03 10:45:11;;;;;;;50.45;22.80;;;3.40;99.90;;;;;;5026497;28;20045;-77
2022/12/03 10:47:36;;;;;;;48.72;21.83;;;3.40;99.90;;;;;;5010172;28;20491;-76
2022/12/03 10:50:13;;;;;;;47.65;22.92;;;3.50;99.90;;;;;;5025564;28;20033;-77
2022/12/03 10:52:38;;;;;;;49.80;23.38;;;3.40;99.90;;;;;;5022144;28;20049;-77
2022/12/03 10:55:04;;;;;;;48.85;22.90;;;3.50;99.90;;;;;;5027800;28;20042;-77
2022/12/03 10:57:30;;;;;;;47.13;22.63;;;3.50;99.90;;;;;;5034841;28;20041;-76
2022/12/03 10:59:56;;;;;;;50.95;23.13;;;3.50;99.90;;;;;;5025738;28;20383;-77
2022/12/03 11:02:23;;;;;;;47.70;23.23;;;3.50;99.90;;;;;;5025073;28;20513;-78
2022/12/03 11:04:49;;;;;;;48.03;21.92;;;3.50;99.90;;;;;;5001375;28;20474;-77
2022/12/03 11:07:18;;;;;;;48.80;23.08;;;3.50;99.90;;;;;;5029148;28;20049;-77
2022/12/03 11:09:46;;;;;;;44.92;22.50;;;3.50;99.90;;;;;;5027702;28;20104;-78
2022/12/03 11:12:25;;;;;;;46.80;22.50;;;3.50;99.90;;;;;;5029343;28;20068;-77
2022/12/03 11:14:54;;;;;;;47.60;22.50;;;3.50;99.90;;;;;;5019655;28;20054;-77
2022/12/03 11:17:48;;;;;;;47.33;23.17;;;3.50;99.90;;;;;;5023893;28;20563;-77
2022/12/03 11:20:19;;;;;;;50.13;22.92;;;3.50;99.90;;;;;;5020034;28;20037;-77
2022/12/03 11:22:49;;;;;;;48.83;22.38;;;3.60;99.90;;;;;;5014552;28;20037;-77
2022/12/03 11:25:45;;;;;;;51.50;22.98;;;3.60;99.90;;;;;;5009901;28;20033;-78
2022/12/03 11:28:13;;;;;;;49.35;23.75;;;3.60;99.90;;;;;;5015614;28;20396;-77
2022/12/03 11:30:52;;;;;;;45.25;22.90;;;3.60;99.90;;;;;;5019117;28;20046;-77
2022/12/03 11:33:28;;;;;;;48.28;23.67;;;3.50;99.90;;;;;;5012582;28;20045;-77
2022/12/03 11:36:03;;;;;;;49.30;23.00;;;3.60;99.90;;;;;;5025445;28;20489;-77
2022/12/03 11:38:40;;;;;;;45.70;22.52;;;3.60;99.90;;;;;;5013512;28;20054;-77
2022/12/03 11:41:10;;;;;;;48.78;24.42;;;3.50;99.90;;;;;;5026531;28;20100;-76
2022/12/03 11:43:51;;;;;;;47.10;23.35;;;3.60;99.90;;;;;;5006765;28;20041;-76
2022/12/03 11:46:22;;;;;;;51.28;24.30;;;3.90;99.90;;;;;;5013146;28;20136;-76
2022/12/03 11:48:50;;;;;;;51.15;23.25;;;3.60;99.90;;;;;;5013333;28;20049;-75
2022/12/03 11:51:18;;;;;;;52.53;23.27;;;3.60;99.90;;;;;;5022053;28;20037;-76
2022/12/03 11:53:44;;;;;;;46.95;22.98;;;3.60;99.90;;;;;;5017109;28;20037;-81
2022/12/03 11:56:17;;;;;;;52.17;23.77;;;3.60;99.90;;;;;;5025500;28;20120;-76
2022/12/03 11:58:44;;;;;;;50.85;24.15;;;3.60;99.90;;;;;;5018698;28;20041;-78
2022/12/03 12:01:10;;;;;;;50.42;24.02;;;3.60;99.90;;;;;;5024579;28;20137;-76
2022/12/03 12:03:48;;;;;;;53.10;23.15;;;3.60;99.90;;;;;;5024632;28;20450;-76
2022/12/03 12:06:16;;;;;;;51.08;24.63;;;3.60;99.90;;;;;;5014644;28;20033;-77
2022/12/03 12:08:50;;;;;;;52.88;24.20;;;3.50;99.90;;;;;;5042277;28;20056;-78
2022/12/03 12:11:24;;;;;;;44.97;22.38;;;3.60;99.90;;;;;;5014674;28;20084;-75
2022/12/03 12:13:53;;;;;;;49.95;23.63;;;3.50;99.90;;;;;;5023446;28;20049;-77
2022/12/03 12:16:35;;;;;;;50.58;24.30;;;3.60;99.90;;;;;;5018044;28;20033;-76
2022/12/03 12:19:30;;;;;;;47.58;22.48;;;3.50;99.90;;;;;;5008454;28;20064;-76
2022/12/03 12:22:10;;;;;;;53.90;24.30;;;3.60;99.90;;;;;;4999796;28;20491;-76
2022/12/03 12:24:40;;;;;;;47.70;23.80;;;3.60;99.90;;;;;;5026148;28;20441;-76
2022/12/03 12:27:16;;;;;;;48.47;22.45;;;3.70;99.90;;;;;;5019375;28;20061;-76
2022/12/03 12:29:44;;;;;;;45.53;22.73;;;3.70;99.90;;;;;;5016904;28;20042;-75
2022/12/03 12:32:14;;;;;;;50.63;24.15;;;3.70;99.90;;;;;;5009120;28;20038;-78
2022/12/03 12:34:40;;;;;;;50.70;23.98;;;3.60;99.90;;;;;;5020983;28;20059;-76
2022/12/03 12:37:11;;;;;;;47.75;23.48;;;3.70;99.90;;;;;;5013049;28;20030;-76
2022/12/03 12:39:37;;;;;;;49.03;24.17;;;3.70;99.90;;;;;;5023370;28;20041;-76
2022/12/03 12:42:26;;;;;;;51.17;24.05;;;3.70;99.90;;;;;;5029346;28;20045;-76
2022/12/03 12:44:53;;;;;;;44.83;21.15;;;3.70;99.90;;;;;;5027124;28;20053;-76
2022/12/03 12:47:18;;;;;;;46.17;23.15;;;3.70;99.90;;;;;;5015938;28;20038;-78
2022/12/03 12:49:44;;;;;;;47.08;21.90;;;3.70;99.90;;;;;;5023030;28;20518;-76
2022/12/03 12:52:13;;;;;;;45.85;21.50;;;3.70;99.90;;;;;;5022941;28;20116;-76
2022/12/03 12:54:39;;;;;;;46.13;21.90;;;3.70;99.90;;;;;;5018356;28;20046;-76